sensor_id;sensor_type;location;lat;lon;timestamp;P1;durP1;ratioP1;P2;durP2;ratioP2
55148;SDS011;49539;48.160;11.530;2024-01-30T00:01:21;12.35;;;7.15;;
55148;SDS011;49539;48.160;11.530;2024-01-30T00:03:47;14.55;;;7.78;;
55148;SDS011;49539;48.160;11.530;2024-01-30T00:06:12;12.77;;;7.03;;
55148;SDS011;49539;48.160;11.530;2024-01-30T00:08:37;12.15;;;6.95;;
55148;SDS011;49539;48.160;11.530;2024-01-30T00:11:03;12.70;;;6.97;;
55148;SDS011;49539;48.160;11.530;2024-01-30T00:13:28;14.43;;;7.65;;
55148;SDS011;49539;48.160;11.530;2024-01-30T00:15:53;13.18;;;7.05;;
55148;SDS011;49539;48.160;11.530;2024-01-30T00:18:19;11.27;;;7.30;;
55148;SDS011;49539;48.160;11.530;2024-01-30T00:20:44;14.27;;;7.15;;
55148;SDS011;49539;48.160;11.530;2024-01-30T00:23:10;12.65;;;7.20;;
55148;SDS011;49539;48.160;11.530;2024-01-30T00:25:35;14.20;;;7.85;;
55148;SDS011;49539;48.160;11.530;2024-01-30T00:28:00;13.35;;;7.38;;
55148;SDS011;49539;48.160;11.530;2024-01-30T00:30:26;11.90;;;7.40;;
55148;SDS011;49539;48.160;11.530;2024-01-30T00:32:51;13.07;;;6.45;;
55148;SDS011;49539;48.160;11.530;2024-01-30T00:35:16;14.68;;;7.30;;
55148;SDS011;49539;48.160;11.530;2024-01-30T00:37:42;13.60;;;7.78;;
55148;SDS011;49539;48.160;11.530;2024-01-30T00:40:08;16.20;;;7.47;;
55148;SDS011;49539;48.160;11.530;2024-01-30T00:42:35;12.70;;;7.35;;
55148;SDS011;49539;48.160;11.530;2024-01-30T00:45:00;15.63;;;7.72;;
55148;SDS011;49539;48.160;11.530;2024-01-30T00:47:26;12.05;;;6.65;;
55148;SDS011;49539;48.160;11.530;2024-01-30T00:49:51;14.60;;;7.00;;
55148;SDS011;49539;48.160;11.530;2024-01-30T00:52:16;14.27;;;8.13;;
55148;SDS011;49539;48.160;11.530;2024-01-30T00:54:42;15.52;;;7.05;;
55148;SDS011;49539;48.160;11.530;2024-01-30T00:57:08;15.18;;;7.45;;
55148;SDS011;49539;48.160;11.530;2024-01-30T00:59:33;17.48;;;7.35;;
55148;SDS011;49539;48.160;11.530;2024-01-30T01:01:58;14.20;;;7.35;;
55148;SDS011;49539;48.160;11.530;2024-01-30T01:04:24;17.95;;;7.40;;
55148;SDS011;49539;48.160;11.530;2024-01-30T01:06:49;15.10;;;7.55;;
55148;SDS011;49539;48.160;11.530;2024-01-30T01:09:15;15.43;;;7.68;;
55148;SDS011;49539;48.160;11.530;2024-01-30T01:11:40;16.60;;;7.82;;
55148;SDS011;49539;48.160;11.530;2024-01-30T01:14:05;12.27;;;6.50;;
55148;SDS011;49539;48.160;11.530;2024-01-30T01:16:31;18.85;;;8.13;;
55148;SDS011;49539;48.160;11.530;2024-01-30T01:18:56;12.88;;;6.57;;
55148;SDS011;49539;48.160;11.530;2024-01-30T01:21:21;16.33;;;6.95;;
55148;SDS011;49539;48.160;11.530;2024-01-30T01:23:48;13.90;;;6.93;;
55148;SDS011;49539;48.160;11.530;2024-01-30T01:26:13;15.10;;;7.82;;
55148;SDS011;49539;48.160;11.530;2024-01-30T01:28:40;12.32;;;7.80;;
55148;SDS011;49539;48.160;11.530;2024-01-30T01:31:06;15.00;;;7.00;;
55148;SDS011;49539;48.160;11.530;2024-01-30T01:33:31;15.30;;;6.65;;
55148;SDS011;49539;48.160;11.530;2024-01-30T01:35:58;12.98;;;6.50;;
55148;SDS011;49539;48.160;11.530;2024-01-30T01:38:23;14.00;;;6.80;;
55148;SDS011;49539;48.160;11.530;2024-01-30T01:40:48;13.13;;;7.13;;
55148;SDS011;49539;48.160;11.530;2024-01-30T01:43:14;12.63;;;6.93;;
55148;SDS011;49539;48.160;11.530;2024-01-30T01:45:39;14.27;;;6.20;;
55148;SDS011;49539;48.160;11.530;2024-01-30T01:48:04;11.98;;;6.25;;
55148;SDS011;49539;48.160;11.530;2024-01-30T01:50:30;16.40;;;7.93;;
55148;SDS011;49539;48.160;11.530;2024-01-30T01:52:55;15.02;;;7.35;;
55148;SDS011;49539;48.160;11.530;2024-01-30T01:55:21;11.10;;;6.28;;
55148;SDS011;49539;48.160;11.530;2024-01-30T01:57:50;11.57;;;6.85;;
55148;SDS011;49539;48.160;11.530;2024-01-30T02:00:16;13.48;;;6.82;;
55148;SDS011;49539;48.160;11.530;2024-01-30T02:02:42;11.25;;;6.45;;
55148;SDS011;49539;48.160;11.530;2024-01-30T02:05:08;13.00;;;7.00;;
55148;SDS011;49539;48.160;11.530;2024-01-30T02:07:34;9.25;;;5.93;;
55148;SDS011;49539;48.160;11.530;2024-01-30T02:09:59;10.40;;;6.50;;
55148;SDS011;49539;48.160;11.530;2024-01-30T02:12:24;12.65;;;6.35;;
55148;SDS011;49539;48.160;11.530;2024-01-30T02:14:50;16.67;;;6.68;;
55148;SDS011;49539;48.160;11.530;2024-01-30T02:17:15;12.30;;;6.13;;
55148;SDS011;49539;48.160;11.530;2024-01-30T02:19:41;16.17;;;6.20;;
55148;SDS011;49539;48.160;11.530;2024-01-30T02:22:06;13.65;;;5.82;;
55148;SDS011;49539;48.160;11.530;2024-01-30T02:24:32;11.65;;;6.55;;
55148;SDS011;49539;48.160;11.530;2024-01-30T02:26:57;12.05;;;6.00;;
55148;SDS011;49539;48.160;11.530;2024-01-30T02:29:23;11.40;;;6.00;;
55148;SDS011;49539;48.160;11.530;2024-01-30T02:31:48;13.50;;;6.13;;
55148;SDS011;49539;48.160;11.530;2024-01-30T02:34:14;12.30;;;6.97;;
55148;SDS011;49539;48.160;11.530;2024-01-30T02:36:42;12.55;;;6.22;;
55148;SDS011;49539;48.160;11.530;2024-01-30T02:39:07;13.60;;;6.47;;
55148;SDS011;49539;48.160;11.530;2024-01-30T02:41:33;10.90;;;6.53;;
55148;SDS011;49539;48.160;11.530;2024-01-30T02:43:58;14.15;;;6.45;;
55148;SDS011;49539;48.160;11.530;2024-01-30T02:46:23;13.07;;;6.05;;
55148;SDS011;49539;48.160;11.530;2024-01-30T02:48:49;19.92;;;6.85;;
55148;SDS011;49539;48.160;11.530;2024-01-30T02:51:14;14.27;;;6.57;;
55148;SDS011;49539;48.160;11.530;2024-01-30T02:53:39;10.38;;;5.70;;
55148;SDS011;49539;48.160;11.530;2024-01-30T02:56:06;10.07;;;5.65;;
55148;SDS011;49539;48.160;11.530;2024-01-30T02:58:34;14.80;;;6.45;;
55148;SDS011;49539;48.160;11.530;2024-01-30T03:01:00;11.70;;;6.47;;
55148;SDS011;49539;48.160;11.530;2024-01-30T03:03:25;10.82;;;6.43;;
55148;SDS011;49539;48.160;11.530;2024-01-30T03:05:50;11.38;;;5.90;;
55148;SDS011;49539;48.160;11.530;2024-01-30T03:08:16;9.80;;;5.63;;
55148;SDS011;49539;48.160;11.530;2024-01-30T03:10:41;10.15;;;6.28;;
55148;SDS011;49539;48.160;11.530;2024-01-30T03:13:06;10.07;;;5.97;;
55148;SDS011;49539;48.160;11.530;2024-01-30T03:15:32;12.07;;;6.38;;
55148;SDS011;49539;48.160;11.530;2024-01-30T03:17:57;12.25;;;6.30;;
55148;SDS011;49539;48.160;11.530;2024-01-30T03:20:22;12.05;;;6.28;;
55148;SDS011;49539;48.160;11.530;2024-01-30T03:22:48;11.32;;;6.00;;
55148;SDS011;49539;48.160;11.530;2024-01-30T03:25:13;10.20;;;5.80;;
55148;SDS011;49539;48.160;11.530;2024-01-30T03:27:38;11.02;;;6.47;;
55148;SDS011;49539;48.160;11.530;2024-01-30T03:30:04;13.48;;;6.15;;
55148;SDS011;49539;48.160;11.530;2024-01-30T03:32:29;12.02;;;6.03;;
55148;SDS011;49539;48.160;11.530;2024-01-30T03:34:55;11.88;;;5.93;;
55148;SDS011;49539;48.160;11.530;2024-01-30T03:37:20;10.32;;;5.90;;
55148;SDS011;49539;48.160;11.530;2024-01-30T03:39:45;10.75;;;5.95;;
55148;SDS011;49539;48.160;11.530;2024-01-30T03:42:11;14.00;;;6.80;;
55148;SDS011;49539;48.160;11.530;2024-01-30T03:44:36;12.50;;;5.97;;
55148;SDS011;49539;48.160;11.530;2024-01-30T03:47:01;9.02;;;5.38;;
55148;SDS011;49539;48.160;11.530;2024-01-30T03:49:26;13.40;;;6.53;;
55148;SDS011;49539;48.160;11.530;2024-01-30T03:51:52;11.38;;;6.28;;
55148;SDS011;49539;48.160;11.530;2024-01-30T03:54:17;10.75;;;6.28;;
55148;SDS011;49539;48.160;11.530;2024-01-30T03:56:42;11.52;;;5.55;;
55148;SDS011;49539;48.160;11.530;2024-01-30T03:59:08;12.35;;;5.88;;
55148;SDS011;49539;48.160;11.530;2024-01-30T04:01:33;10.02;;;5.82;;
55148;SDS011;49539;48.160;11.530;2024-01-30T04:03:58;10.80;;;5.93;;
55148;SDS011;49539;48.160;11.530;2024-01-30T04:06:24;10.73;;;6.35;;
55148;SDS011;49539;48.160;11.530;2024-01-30T04:08:49;12.40;;;5.90;;
55148;SDS011;49539;48.160;11.530;2024-01-30T04:11:14;11.30;;;6.22;;
55148;SDS011;49539;48.160;11.530;2024-01-30T04:13:40;8.88;;;5.40;;
55148;SDS011;49539;48.160;11.530;2024-01-30T04:16:05;10.00;;;5.53;;
55148;SDS011;49539;48.160;11.530;2024-01-30T04:18:31;10.90;;;5.47;;
55148;SDS011;49539;48.160;11.530;2024-01-30T04:20:57;8.38;;;4.85;;
55148;SDS011;49539;48.160;11.530;2024-01-30T04:23:22;8.73;;;5.85;;
55148;SDS011;49539;48.160;11.530;2024-01-30T04:25:47;9.40;;;5.32;;
55148;SDS011;49539;48.160;11.530;2024-01-30T04:28:13;10.77;;;5.43;;
55148;SDS011;49539;48.160;11.530;2024-01-30T04:30:38;10.93;;;5.47;;
55148;SDS011;49539;48.160;11.530;2024-01-30T04:33:03;9.27;;;5.28;;
55148;SDS011;49539;48.160;11.530;2024-01-30T04:35:29;10.07;;;5.80;;
55148;SDS011;49539;48.160;11.530;2024-01-30T04:37:54;8.32;;;4.60;;
55148;SDS011;49539;48.160;11.530;2024-01-30T04:40:22;8.25;;;5.35;;
55148;SDS011;49539;48.160;11.530;2024-01-30T04:42:48;11.55;;;5.75;;
55148;SDS011;49539;48.160;11.530;2024-01-30T04:45:13;8.82;;;4.85;;
55148;SDS011;49539;48.160;11.530;2024-01-30T04:47:39;10.75;;;5.75;;
55148;SDS011;49539;48.160;11.530;2024-01-30T04:50:05;9.52;;;5.13;;
55148;SDS011;49539;48.160;11.530;2024-01-30T04:52:31;10.90;;;5.18;;
55148;SDS011;49539;48.160;11.530;2024-01-30T04:54:56;9.38;;;5.20;;
55148;SDS011;49539;48.160;11.530;2024-01-30T04:57:21;9.75;;;5.43;;
55148;SDS011;49539;48.160;11.530;2024-01-30T04:59:47;8.65;;;5.45;;
55148;SDS011;49539;48.160;11.530;2024-01-30T05:02:12;14.95;;;5.97;;
55148;SDS011;49539;48.160;11.530;2024-01-30T05:04:37;8.27;;;4.78;;
55148;SDS011;49539;48.160;11.530;2024-01-30T05:07:03;8.57;;;4.82;;
55148;SDS011;49539;48.160;11.530;2024-01-30T05:09:28;9.73;;;5.35;;
55148;SDS011;49539;48.160;11.530;2024-01-30T05:11:53;8.48;;;5.28;;
55148;SDS011;49539;48.160;11.530;2024-01-30T05:14:19;10.82;;;5.35;;
55148;SDS011;49539;48.160;11.530;2024-01-30T05:16:44;13.27;;;5.30;;
55148;SDS011;49539;48.160;11.530;2024-01-30T05:19:12;12.32;;;5.50;;
55148;SDS011;49539;48.160;11.530;2024-01-30T05:21:37;12.63;;;6.13;;
55148;SDS011;49539;48.160;11.530;2024-01-30T05:24:03;10.25;;;5.82;;
55148;SDS011;49539;48.160;11.530;2024-01-30T05:26:28;8.38;;;5.28;;
55148;SDS011;49539;48.160;11.530;2024-01-30T05:28:54;11.57;;;5.32;;
55148;SDS011;49539;48.160;11.530;2024-01-30T05:31:19;12.75;;;5.75;;
55148;SDS011;49539;48.160;11.530;2024-01-30T05:33:44;8.77;;;5.38;;
55148;SDS011;49539;48.160;11.530;2024-01-30T05:36:11;13.43;;;5.32;;
55148;SDS011;49539;48.160;11.530;2024-01-30T05:38:37;7.93;;;5.20;;
55148;SDS011;49539;48.160;11.530;2024-01-30T05:41:02;13.23;;;5.78;;
55148;SDS011;49539;48.160;11.530;2024-01-30T05:43:27;9.27;;;5.38;;
55148;SDS011;49539;48.160;11.530;2024-01-30T05:45:52;11.20;;;5.38;;
55148;SDS011;49539;48.160;11.530;2024-01-30T05:48:18;9.30;;;5.13;;
55148;SDS011;49539;48.160;11.530;2024-01-30T05:50:43;12.38;;;6.13;;
55148;SDS011;49539;48.160;11.530;2024-01-30T05:53:08;9.98;;;5.88;;
55148;SDS011;49539;48.160;11.530;2024-01-30T05:55:34;9.88;;;5.43;;
55148;SDS011;49539;48.160;11.530;2024-01-30T05:57:59;10.00;;;5.65;;
55148;SDS011;49539;48.160;11.530;2024-01-30T06:00:24;9.15;;;5.20;;
55148;SDS011;49539;48.160;11.530;2024-01-30T06:02:50;8.52;;;5.30;;
55148;SDS011;49539;48.160;11.530;2024-01-30T06:05:15;10.93;;;5.88;;
55148;SDS011;49539;48.160;11.530;2024-01-30T06:07:40;12.45;;;5.93;;
55148;SDS011;49539;48.160;11.530;2024-01-30T06:10:06;12.90;;;5.82;;
55148;SDS011;49539;48.160;11.530;2024-01-30T06:12:32;8.82;;;5.25;;
55148;SDS011;49539;48.160;11.530;2024-01-30T06:14:57;10.82;;;6.03;;
55148;SDS011;49539;48.160;11.530;2024-01-30T06:17:23;9.88;;;5.20;;
55148;SDS011;49539;48.160;11.530;2024-01-30T06:19:48;12.23;;;5.55;;
55148;SDS011;49539;48.160;11.530;2024-01-30T06:22:14;10.38;;;5.72;;
55148;SDS011;49539;48.160;11.530;2024-01-30T06:24:39;10.30;;;5.25;;
55148;SDS011;49539;48.160;11.530;2024-01-30T06:27:04;11.27;;;5.63;;
55148;SDS011;49539;48.160;11.530;2024-01-30T06:29:30;17.08;;;5.40;;
55148;SDS011;49539;48.160;11.530;2024-01-30T06:31:55;9.63;;;5.38;;
55148;SDS011;49539;48.160;11.530;2024-01-30T06:34:21;11.45;;;5.50;;
55148;SDS011;49539;48.160;11.530;2024-01-30T06:36:46;11.10;;;5.82;;
55148;SDS011;49539;48.160;11.530;2024-01-30T06:39:11;13.15;;;5.03;;
55148;SDS011;49539;48.160;11.530;2024-01-30T06:41:37;10.25;;;5.82;;
55148;SDS011;49539;48.160;11.530;2024-01-30T06:44:02;10.10;;;4.85;;
55148;SDS011;49539;48.160;11.530;2024-01-30T06:46:29;13.27;;;5.03;;
55148;SDS011;49539;48.160;11.530;2024-01-30T06:48:54;11.43;;;4.88;;
55148;SDS011;49539;48.160;11.530;2024-01-30T06:51:19;8.50;;;4.80;;
55148;SDS011;49539;48.160;11.530;2024-01-30T06:53:45;6.95;;;3.88;;
55148;SDS011;49539;48.160;11.530;2024-01-30T06:56:10;8.77;;;4.68;;
55148;SDS011;49539;48.160;11.530;2024-01-30T06:58:36;8.55;;;4.72;;
55148;SDS011;49539;48.160;11.530;2024-01-30T07:01:01;9.70;;;4.88;;
55148;SDS011;49539;48.160;11.530;2024-01-30T07:03:27;8.15;;;4.40;;
55148;SDS011;49539;48.160;11.530;2024-01-30T07:05:52;17.08;;;5.15;;
55148;SDS011;49539;48.160;11.530;2024-01-30T07:08:17;11.70;;;5.38;;
55148;SDS011;49539;48.160;11.530;2024-01-30T07:10:43;8.25;;;4.57;;
55148;SDS011;49539;48.160;11.530;2024-01-30T07:13:08;12.13;;;5.18;;
55148;SDS011;49539;48.160;11.530;2024-01-30T07:15:35;9.10;;;4.70;;
55148;SDS011;49539;48.160;11.530;2024-01-30T07:18:01;9.30;;;4.28;;
55148;SDS011;49539;48.160;11.530;2024-01-30T07:20:27;10.18;;;5.38;;
55148;SDS011;49539;48.160;11.530;2024-01-30T07:22:52;9.55;;;5.10;;
55148;SDS011;49539;48.160;11.530;2024-01-30T07:25:18;8.60;;;4.60;;
55148;SDS011;49539;48.160;11.530;2024-01-30T07:27:43;9.52;;;4.95;;
55148;SDS011;49539;48.160;11.530;2024-01-30T07:30:08;13.40;;;4.68;;
55148;SDS011;49539;48.160;11.530;2024-01-30T07:32:34;11.07;;;4.82;;
55148;SDS011;49539;48.160;11.530;2024-01-30T07:34:59;14.52;;;4.47;;
55148;SDS011;49539;48.160;11.530;2024-01-30T07:37:24;10.25;;;5.45;;
55148;SDS011;49539;48.160;11.530;2024-01-30T07:39:50;12.40;;;5.00;;
55148;SDS011;49539;48.160;11.530;2024-01-30T07:42:15;12.90;;;4.43;;
55148;SDS011;49539;48.160;11.530;2024-01-30T07:44:41;12.85;;;5.25;;
55148;SDS011;49539;48.160;11.530;2024-01-30T07:47:06;12.40;;;5.03;;
55148;SDS011;49539;48.160;11.530;2024-01-30T07:49:32;11.77;;;4.53;;
55148;SDS011;49539;48.160;11.530;2024-01-30T07:51:58;9.93;;;4.45;;
55148;SDS011;49539;48.160;11.530;2024-01-30T07:54:23;14.50;;;4.63;;
55148;SDS011;49539;48.160;11.530;2024-01-30T07:56:49;7.50;;;4.38;;
55148;SDS011;49539;48.160;11.530;2024-01-30T07:59:14;12.15;;;5.22;;
55148;SDS011;49539;48.160;11.530;2024-01-30T08:01:39;9.70;;;4.28;;
55148;SDS011;49539;48.160;11.530;2024-01-30T08:04:05;17.63;;;5.35;;
55148;SDS011;49539;48.160;11.530;2024-01-30T08:06:30;9.60;;;4.50;;
55148;SDS011;49539;48.160;11.530;2024-01-30T08:08:55;9.45;;;4.40;;
55148;SDS011;49539;48.160;11.530;2024-01-30T08:11:22;11.50;;;4.95;;
55148;SDS011;49539;48.160;11.530;2024-01-30T08:13:54;13.85;;;4.20;;
55148;SDS011;49539;48.160;11.530;2024-01-30T08:16:20;15.60;;;4.88;;
55148;SDS011;49539;48.160;11.530;2024-01-30T08:18:45;8.55;;;4.00;;
55148;SDS011;49539;48.160;11.530;2024-01-30T08:21:10;10.15;;;4.13;;
55148;SDS011;49539;48.160;11.530;2024-01-30T08:23:37;7.95;;;4.18;;
55148;SDS011;49539;48.160;11.530;2024-01-30T08:26:03;13.88;;;4.68;;
55148;SDS011;49539;48.160;11.530;2024-01-30T08:28:28;7.45;;;4.00;;
55148;SDS011;49539;48.160;11.530;2024-01-30T08:30:54;9.80;;;4.45;;
55148;SDS011;49539;48.160;11.530;2024-01-30T08:33:19;11.20;;;4.65;;
55148;SDS011;49539;48.160;11.530;2024-01-30T08:35:44;9.20;;;4.50;;
55148;SDS011;49539;48.160;11.530;2024-01-30T08:38:10;10.27;;;3.80;;
55148;SDS011;49539;48.160;11.530;2024-01-30T08:40:37;6.63;;;4.25;;
55148;SDS011;49539;48.160;11.530;2024-01-30T08:43:02;11.70;;;4.43;;
55148;SDS011;49539;48.160;11.530;2024-01-30T08:45:29;15.73;;;3.88;;
55148;SDS011;49539;48.160;11.530;2024-01-30T08:47:55;9.63;;;4.30;;
55148;SDS011;49539;48.160;11.530;2024-01-30T08:50:20;8.57;;;3.90;;
55148;SDS011;49539;48.160;11.530;2024-01-30T08:52:46;15.63;;;4.03;;
55148;SDS011;49539;48.160;11.530;2024-01-30T08:55:11;5.57;;;2.70;;
55148;SDS011;49539;48.160;11.530;2024-01-30T08:57:37;8.75;;;3.60;;
55148;SDS011;49539;48.160;11.530;2024-01-30T09:00:02;7.53;;;3.30;;
55148;SDS011;49539;48.160;11.530;2024-01-30T09:02:31;12.18;;;2.75;;
55148;SDS011;49539;48.160;11.530;2024-01-30T09:04:57;10.02;;;4.25;;
55148;SDS011;49539;48.160;11.530;2024-01-30T09:07:22;7.28;;;2.92;;
55148;SDS011;49539;48.160;11.530;2024-01-30T09:09:47;5.30;;;3.08;;
55148;SDS011;49539;48.160;11.530;2024-01-30T09:12:14;11.13;;;3.17;;
55148;SDS011;49539;48.160;11.530;2024-01-30T09:14:39;5.75;;;2.72;;
55148;SDS011;49539;48.160;11.530;2024-01-30T09:17:06;7.35;;;3.50;;
55148;SDS011;49539;48.160;11.530;2024-01-30T09:19:31;6.70;;;3.13;;
55148;SDS011;49539;48.160;11.530;2024-01-30T09:21:56;9.82;;;3.47;;
55148;SDS011;49539;48.160;11.530;2024-01-30T09:24:22;7.53;;;3.22;;
55148;SDS011;49539;48.160;11.530;2024-01-30T09:26:47;8.73;;;3.88;;
55148;SDS011;49539;48.160;11.530;2024-01-30T09:29:13;11.18;;;3.78;;
55148;SDS011;49539;48.160;11.530;2024-01-30T09:31:38;7.25;;;3.58;;
55148;SDS011;49539;48.160;11.530;2024-01-30T09:34:03;7.85;;;4.43;;
55148;SDS011;49539;48.160;11.530;2024-01-30T09:36:29;5.57;;;3.20;;
55148;SDS011;49539;48.160;11.530;2024-01-30T09:38:54;13.73;;;3.95;;
55148;SDS011;49539;48.160;11.530;2024-01-30T09:41:19;8.55;;;3.75;;
55148;SDS011;49539;48.160;11.530;2024-01-30T09:43:47;7.30;;;3.75;;
55148;SDS011;49539;48.160;11.530;2024-01-30T09:46:13;8.50;;;3.85;;
55148;SDS011;49539;48.160;11.530;2024-01-30T09:48:43;13.48;;;4.40;;
55148;SDS011;49539;48.160;11.530;2024-01-30T09:51:10;8.27;;;4.10;;
55148;SDS011;49539;48.160;11.530;2024-01-30T09:53:36;7.80;;;3.90;;
55148;SDS011;49539;48.160;11.530;2024-01-30T09:56:02;7.47;;;3.97;;
55148;SDS011;49539;48.160;11.530;2024-01-30T09:58:28;8.80;;;3.50;;
55148;SDS011;49539;48.160;11.530;2024-01-30T10:00:53;7.63;;;3.75;;
55148;SDS011;49539;48.160;11.530;2024-01-30T10:03:19;7.95;;;3.67;;
55148;SDS011;49539;48.160;11.530;2024-01-30T10:05:46;6.97;;;2.90;;
55148;SDS011;49539;48.160;11.530;2024-01-30T10:08:16;8.70;;;4.05;;
55148;SDS011;49539;48.160;11.530;2024-01-30T10:10:41;5.10;;;2.85;;
55148;SDS011;49539;48.160;11.530;2024-01-30T10:13:10;7.38;;;3.20;;
55148;SDS011;49539;48.160;11.530;2024-01-30T10:15:36;9.80;;;3.17;;
55148;SDS011;49539;48.160;11.530;2024-01-30T10:18:04;6.38;;;3.08;;
55148;SDS011;49539;48.160;11.530;2024-01-30T10:20:31;7.72;;;3.00;;
55148;SDS011;49539;48.160;11.530;2024-01-30T10:22:57;7.93;;;2.97;;
55148;SDS011;49539;48.160;11.530;2024-01-30T10:25:22;8.18;;;2.90;;
55148;SDS011;49539;48.160;11.530;2024-01-30T10:27:52;7.28;;;2.78;;
55148;SDS011;49539;48.160;11.530;2024-01-30T10:30:18;6.90;;;3.10;;
55148;SDS011;49539;48.160;11.530;2024-01-30T10:32:43;4.90;;;2.65;;
55148;SDS011;49539;48.160;11.530;2024-01-30T10:35:09;5.03;;;2.20;;
55148;SDS011;49539;48.160;11.530;2024-01-30T10:37:34;4.40;;;2.22;;
55148;SDS011;49539;48.160;11.530;2024-01-30T10:40:02;3.15;;;1.70;;
55148;SDS011;49539;48.160;11.530;2024-01-30T10:42:28;4.97;;;2.00;;
55148;SDS011;49539;48.160;11.530;2024-01-30T10:44:57;3.10;;;2.10;;
55148;SDS011;49539;48.160;11.530;2024-01-30T10:47:28;3.22;;;1.73;;
55148;SDS011;49539;48.160;11.530;2024-01-30T10:49:54;3.35;;;1.75;;
55148;SDS011;49539;48.160;11.530;2024-01-30T10:52:19;3.85;;;1.70;;
55148;SDS011;49539;48.160;11.530;2024-01-30T10:54:45;6.03;;;2.55;;
55148;SDS011;49539;48.160;11.530;2024-01-30T10:57:11;6.25;;;1.83;;
55148;SDS011;49539;48.160;11.530;2024-01-30T10:59:37;5.13;;;2.10;;
55148;SDS011;49539;48.160;11.530;2024-01-30T11:02:03;3.15;;;1.48;;
55148;SDS011;49539;48.160;11.530;2024-01-30T11:04:38;5.10;;;2.15;;
55148;SDS011;49539;48.160;11.530;2024-01-30T11:07:16;4.47;;;1.70;;
55148;SDS011;49539;48.160;11.530;2024-01-30T11:09:48;4.55;;;1.50;;
55148;SDS011;49539;48.160;11.530;2024-01-30T11:12:13;1.80;;;0.95;;
55148;SDS011;49539;48.160;11.530;2024-01-30T11:14:38;4.30;;;1.58;;
55148;SDS011;49539;48.160;11.530;2024-01-30T11:17:05;2.65;;;1.30;;
55148;SDS011;49539;48.160;11.530;2024-01-30T11:19:31;2.85;;;1.20;;
55148;SDS011;49539;48.160;11.530;2024-01-30T11:21:57;14.57;;;1.73;;
55148;SDS011;49539;48.160;11.530;2024-01-30T11:24:22;3.17;;;1.70;;
55148;SDS011;49539;48.160;11.530;2024-01-30T11:26:49;2.92;;;1.50;;
55148;SDS011;49539;48.160;11.530;2024-01-30T11:29:15;3.83;;;1.60;;
55148;SDS011;49539;48.160;11.530;2024-01-30T11:31:51;2.58;;;1.30;;
55148;SDS011;49539;48.160;11.530;2024-01-30T11:34:16;4.10;;;1.50;;
55148;SDS011;49539;48.160;11.530;2024-01-30T11:36:42;4.28;;;1.65;;
55148;SDS011;49539;48.160;11.530;2024-01-30T11:39:07;2.28;;;1.25;;
55148;SDS011;49539;48.160;11.530;2024-01-30T11:41:33;5.63;;;1.98;;
55148;SDS011;49539;48.160;11.530;2024-01-30T11:43:59;9.10;;;1.65;;
55148;SDS011;49539;48.160;11.530;2024-01-30T11:46:24;3.95;;;1.58;;
55148;SDS011;49539;48.160;11.530;2024-01-30T11:48:50;4.82;;;1.90;;
55148;SDS011;49539;48.160;11.530;2024-01-30T11:51:16;3.25;;;1.75;;
55148;SDS011;49539;48.160;11.530;2024-01-30T11:53:44;6.25;;;1.90;;
55148;SDS011;49539;48.160;11.530;2024-01-30T11:56:09;5.13;;;1.80;;
55148;SDS011;49539;48.160;11.530;2024-01-30T11:58:37;6.07;;;1.98;;
55148;SDS011;49539;48.160;11.530;2024-01-30T12:01:02;3.60;;;1.80;;
55148;SDS011;49539;48.160;11.530;2024-01-30T12:03:28;2.88;;;1.60;;
55148;SDS011;49539;48.160;11.530;2024-01-30T12:05:57;4.95;;;1.83;;
55148;SDS011;49539;48.160;11.530;2024-01-30T12:08:23;3.42;;;1.67;;
55148;SDS011;49539;48.160;11.530;2024-01-30T12:10:55;4.78;;;1.70;;
55148;SDS011;49539;48.160;11.530;2024-01-30T12:13:20;3.38;;;1.60;;
55148;SDS011;49539;48.160;11.530;2024-01-30T12:15:46;9.45;;;1.60;;
55148;SDS011;49539;48.160;11.530;2024-01-30T12:18:11;5.18;;;1.25;;
55148;SDS011;49539;48.160;11.530;2024-01-30T12:20:36;4.82;;;1.40;;
55148;SDS011;49539;48.160;11.530;2024-01-30T12:23:02;2.15;;;1.25;;
55148;SDS011;49539;48.160;11.530;2024-01-30T12:25:27;4.55;;;1.30;;
55148;SDS011;49539;48.160;11.530;2024-01-30T12:27:53;4.10;;;1.52;;
55148;SDS011;49539;48.160;11.530;2024-01-30T12:30:19;3.72;;;1.30;;
55148;SDS011;49539;48.160;11.530;2024-01-30T12:32:45;5.15;;;1.45;;
55148;SDS011;49539;48.160;11.530;2024-01-30T12:35:15;8.20;;;1.40;;
55148;SDS011;49539;48.160;11.530;2024-01-30T12:37:43;3.08;;;1.48;;
55148;SDS011;49539;48.160;11.530;2024-01-30T12:40:09;4.45;;;1.50;;
55148;SDS011;49539;48.160;11.530;2024-01-30T12:42:35;5.13;;;1.75;;
55148;SDS011;49539;48.160;11.530;2024-01-30T12:45:02;2.90;;;1.30;;
55148;SDS011;49539;48.160;11.530;2024-01-30T12:47:27;2.90;;;1.60;;
55148;SDS011;49539;48.160;11.530;2024-01-30T12:49:52;4.35;;;1.10;;
55148;SDS011;49539;48.160;11.530;2024-01-30T12:52:19;3.90;;;1.20;;
55148;SDS011;49539;48.160;11.530;2024-01-30T12:54:44;3.22;;;1.38;;
55148;SDS011;49539;48.160;11.530;2024-01-30T12:57:10;2.88;;;1.55;;
55148;SDS011;49539;48.160;11.530;2024-01-30T12:59:35;4.13;;;1.30;;
55148;SDS011;49539;48.160;11.530;2024-01-30T13:02:00;2.70;;;1.17;;
55148;SDS011;49539;48.160;11.530;2024-01-30T13:04:27;2.80;;;1.30;;
55148;SDS011;49539;48.160;11.530;2024-01-30T13:06:52;1.85;;;1.08;;
55148;SDS011;49539;48.160;11.530;2024-01-30T13:09:17;2.30;;;0.82;;
55148;SDS011;49539;48.160;11.530;2024-01-30T13:11:43;4.03;;;1.40;;
55148;SDS011;49539;48.160;11.530;2024-01-30T13:14:08;4.00;;;1.50;;
55148;SDS011;49539;48.160;11.530;2024-01-30T13:16:33;3.05;;;1.30;;
55148;SDS011;49539;48.160;11.530;2024-01-30T13:18:59;4.20;;;1.70;;
55148;SDS011;49539;48.160;11.530;2024-01-30T13:21:26;2.33;;;1.20;;
55148;SDS011;49539;48.160;11.530;2024-01-30T13:23:51;3.88;;;1.40;;
55148;SDS011;49539;48.160;11.530;2024-01-30T13:26:19;2.85;;;1.10;;
55148;SDS011;49539;48.160;11.530;2024-01-30T13:28:45;4.43;;;1.15;;
55148;SDS011;49539;48.160;11.530;2024-01-30T13:31:10;3.97;;;1.50;;
55148;SDS011;49539;48.160;11.530;2024-01-30T13:33:35;4.60;;;1.73;;
55148;SDS011;49539;48.160;11.530;2024-01-30T13:36:01;11.65;;;1.83;;
55148;SDS011;49539;48.160;11.530;2024-01-30T13:38:26;2.60;;;1.17;;
55148;SDS011;49539;48.160;11.530;2024-01-30T13:40:51;2.63;;;1.25;;
55148;SDS011;49539;48.160;11.530;2024-01-30T13:43:17;1.77;;;1.20;;
55148;SDS011;49539;48.160;11.530;2024-01-30T13:45:43;2.53;;;1.27;;
55148;SDS011;49539;48.160;11.530;2024-01-30T13:48:08;2.85;;;1.40;;
55148;SDS011;49539;48.160;11.530;2024-01-30T13:50:33;1.85;;;0.90;;
55148;SDS011;49539;48.160;11.530;2024-01-30T13:52:59;7.55;;;1.60;;
55148;SDS011;49539;48.160;11.530;2024-01-30T13:55:24;3.33;;;1.20;;
55148;SDS011;49539;48.160;11.530;2024-01-30T13:57:50;2.58;;;1.27;;
55148;SDS011;49539;48.160;11.530;2024-01-30T14:00:15;3.45;;;1.05;;
55148;SDS011;49539;48.160;11.530;2024-01-30T14:02:41;2.88;;;1.30;;
55148;SDS011;49539;48.160;11.530;2024-01-30T14:05:06;6.82;;;1.50;;
55148;SDS011;49539;48.160;11.530;2024-01-30T14:07:32;3.47;;;1.10;;
55148;SDS011;49539;48.160;11.530;2024-01-30T14:09:57;2.20;;;1.20;;
55148;SDS011;49539;48.160;11.530;2024-01-30T14:12:23;3.85;;;1.35;;
55148;SDS011;49539;48.160;11.530;2024-01-30T14:14:48;3.58;;;1.48;;
55148;SDS011;49539;48.160;11.530;2024-01-30T14:17:13;3.33;;;1.50;;
55148;SDS011;49539;48.160;11.530;2024-01-30T14:19:39;2.40;;;1.23;;